Latest Weather Observations for Bowen Airport AWS

IDQ60801

Issued at 11:32 pm EST Thursday 23 February 2017 (issued every 30 minutes, with the page automatically refreshed every 10 minutes)

About weather observations | Map of weather stations | Latest weather observations for QLD | Other Formats
Station Details ID: 033327 Name: BOWEN AIRPORT AWS Lat: -20.02 Lon: 148.21 Height: 5.9 m
Data from the previous 72 hours. | See also: Recent months at Bowen Airport AWS
Date/Time
EST
Temp
°C
App
Temp
°C
Dew
Point
°C
Rel
Hum
%
Delta-T
°C
Wind Press
QNH
hPa
Press
MSL
hPa
Rain since
9am
mm
Dir  Spd
km/h
Gust
km/h
Spd
kts
Gust
kts
23/11:00pm 27.4 30.6 24.3 83 2.1 SE 15 22 8 12 1014.4 1014.3 4.6
23/10:30pm 27.5 29.4 23.7 80 2.6 SE 20 28 11 15 1014.3 1014.2 4.6
23/10:00pm 27.1 29.0 23.8 82 2.3 ESE 20 26 11 14 1014.1 1014.0 4.6
23/09:30pm 27.1 29.6 23.8 82 2.3 SE 17 22 9 12 1013.9 1013.8 4.6
23/09:00pm 27.9 30.0 23.7 78 2.9 SE 19 26 10 14 1013.6 1013.5 4.6
23/08:30pm 28.2 29.6 23.6 76 3.2 ESE 22 28 12 15 1013.4 1013.3 4.6
23/08:00pm 28.3 29.5 23.2 74 3.5 ESE 22 32 12 17 1013.5 1013.4 4.6
23/07:30pm 28.3 29.8 23.0 73 3.6 ESE 20 30 11 16 1013.1 1013.0 4.6
23/07:00pm 28.4 29.7 23.3 74 3.5 E 22 30 12 16 1012.9 1012.8 4.6
23/06:30pm 28.6 29.2 22.8 71 3.9 ESE 24 33 13 18 1012.5 1012.4 4.6
23/06:00pm 29.1 30.5 22.8 69 4.3 ESE 20 28 11 15 1012.2 1012.1 4.6
23/05:30pm 29.4 31.5 23.1 69 4.3 ESE 17 22 9 12 1012.1 1012.0 4.6
23/05:00pm 29.4 30.2 23.1 69 4.3 ESE 24 32 13 17 1011.9 1011.8 4.6
23/04:30pm 29.4 29.4 23.1 69 4.3 SE 28 35 15 19 1011.9 1011.8 4.6
23/04:00pm 29.2 30.6 22.9 69 4.3 ESE 20 28 11 15 1011.8 1011.7 4.6
23/03:30pm 29.4 29.4 22.4 66 4.7 ESE 26 35 14 19 1011.9 1011.8 4.6
23/03:00pm 29.1 26.9 22.8 69 4.3 SE 39 54 21 29 1012.0 1011.9 4.6
23/02:30pm 29.7 29.0 23.2 68 4.5 SE 32 43 17 23 1012.1 1012.0 4.6
23/02:00pm 29.7 30.0 22.9 67 4.6 SE 26 37 14 20 1012.4 1012.3 4.6
23/01:30pm 30.4 31.6 23.8 68 4.6 SE 24 32 13 17 1012.7 1012.6 4.6
23/01:00pm 30.7 31.9 23.9 67 4.7 SE 24 32 13 17 1013.2 1013.1 4.6
23/12:30pm 30.1 32.2 23.8 69 4.4 SE 19 26 10 14 1013.5 1013.4 4.6
23/12:00pm 29.8 31.8 24.0 71 4.0 SE 20 26 11 14 1013.9 1013.8 4.6
23/11:30am 29.4 31.5 24.7 76 3.3 SE 22 30 12 16 1014.2 1014.1 4.6
23/11:00am 27.5 28.4 24.6 84 2.0 SE 28 33 15 18 1014.5 1014.4 4.6
23/10:30am 26.0 28.2 24.2 90 1.2 E 20 30 11 16 1014.6 1014.5 4.6
23/10:00am 27.9 29.2 24.1 80 2.6 ESE 24 32 13 17 1014.6 1014.5 0.0
23/09:30am 29.7 30.6 23.4 69 4.3 SE 24 32 13 17 1014.6 1014.5 0.0
23/09:00am 28.6 29.4 23.1 72 3.8 SE 24 32 13 17 1014.5 1014.4 0.0
23/08:30am 28.9 30.2 23.3 72 3.8 SE 22 32 12 17 1014.3 1014.2 0.0
23/08:00am 28.2 29.1 23.3 75 3.4 SE 24 32 13 17 1014.4 1014.3 0.0
23/07:30am 27.3 28.3 22.9 77 3.0 SSE 22 30 12 16 1014.1 1014.0 0.0
23/07:00am 26.6 28.5 22.7 79 2.6 SSE 17 24 9 13 1013.6 1013.5 0.0
23/06:30am 25.4 27.5 22.5 84 2.0 SSE 15 20 8 11 1013.5 1013.4 0.0
23/06:00am 25.0 26.9 22.7 87 1.5 SSE 17 22 9 12 1013.5 1013.4 0.0
23/05:30am 24.8 26.5 23.0 90 1.2 SSE 19 24 10 13 1013.0 1012.9 0.0
23/05:00am 25.4 27.9 23.1 87 1.6 SSE 15 26 8 14 1012.9 1012.8 0.0
23/04:30am 25.0 28.3 22.5 86 1.7 SSE 9 13 5 7 1012.5 1012.4 0.0
23/04:00am 24.8 28.1 22.5 87 1.5 SSE 9 13 5 7 1012.3 1012.2 0.0
23/03:30am 24.9 27.9 22.6 87 1.5 SSE 11 15 6 8 1012.1 1012.0 0.0
23/03:00am 25.3 28.0 22.8 86 1.7 SSE 13 19 7 10 1012.6 1012.5 0.0
23/02:30am 25.7 28.2 23.2 86 1.7 SE 15 19 8 10 1012.7 1012.6 0.0
23/02:00am 25.6 28.7 22.9 85 1.8 SSE 11 17 6 9 1012.9 1012.8 0.0
23/01:30am 25.8 29.2 23.3 86 1.7 SSE 11 15 6 8 1013.1 1013.0 0.0
23/01:00am 26.3 29.8 23.6 85 1.8 SE 11 15 6 8 1013.2 1013.1 0.0
23/12:30am 26.6 29.7 23.5 83 2.1 SE 13 17 7 9 1013.6 1013.5 0.0
23/12:00am 26.1 29.4 23.2 84 2.0 SSE 11 13 6 7 1014.0 1013.9 0.0
 
Date/Time
EST
Temp
°C
App
Temp
°C
Dew
Point
°C
Rel
Hum
%
Delta-T
°C
Wind Press
QNH
hPa
Press
MSL
hPa
Rain since
9am
mm
Dir  Spd
km/h
Gust
km/h
Spd
kts
Gust
kts
22/11:30pm 26.4 29.9 22.9 81 2.4 SSE 9 13 5 7 1014.0 1013.9 0.0
22/11:00pm 26.7 29.5 23.0 80 2.5 SSE 13 17 7 9 1014.0 1013.9 0.0
22/10:30pm 26.8 30.0 23.1 80 2.5 SSE 11 17 6 9 1014.0 1013.9 0.0
22/10:00pm 27.1 30.3 23.1 79 2.7 SSE 11 15 6 8 1014.0 1013.9 0.0
22/09:30pm 27.4 30.3 23.2 78 2.9 SSE 13 20 7 11 1013.5 1013.4 0.0
22/09:00pm 28.0 29.8 23.2 75 3.3 SE 19 24 10 13 1013.2 1013.1 0.0
22/08:30pm 28.3 29.1 22.5 71 3.9 SE 22 28 12 15 1012.9 1012.8 0.0
22/08:00pm 28.5 28.8 23.0 72 3.8 SE 26 33 14 18 1012.6 1012.5 0.0
22/07:30pm 28.8 29.4 22.8 70 4.1 SE 24 33 13 18 1012.2 1012.1 0.0
22/07:00pm 28.8 28.4 22.3 68 4.4 SE 28 39 15 21 1011.7 1011.6 0.0
22/06:30pm 29.4 29.1 21.9 64 5.1 SE 26 35 14 19 1011.3 1011.2 0.0
22/06:00pm 30.8 32.0 23.2 64 5.2 ESE 22 33 12 18 1010.9 1010.8 0.0
22/05:30pm 30.4 30.9 22.6 63 5.3 E 24 30 13 16 1010.6 1010.5 0.0
22/05:00pm 31.1 31.5 22.4 60 5.9 E 24 32 13 17 1010.5 1010.4 0.0
22/04:30pm 31.3 31.2 22.3 58 6.1 E 26 33 14 18 1010.4 1010.3 0.0
22/04:00pm 31.6 32.3 22.3 57 6.3 E 22 28 12 15 1010.5 1010.4 0.0
22/03:30pm 31.8 32.5 21.6 54 6.9 E 20 26 11 14 1010.9 1010.8 0.0
22/03:00pm 32.5 33.9 22.9 57 6.6 ESE 20 32 11 17 1011.0 1010.9 0.0
22/02:30pm 31.8 31.9 21.9 55 6.7 SE 24 30 13 16 1011.3 1011.2 0.0
22/02:00pm 31.7 32.5 21.8 55 6.7 ESE 20 26 11 14 1011.5 1011.4 0.0
22/01:30pm 33.0 34.3 23.3 56 6.7 ESE 22 32 12 17 1011.6 1011.5 0.0
22/01:00pm 32.3 31.4 21.5 53 7.3 SE 28 35 15 19 1011.9 1011.8 0.0
22/12:30pm 32.6 33.7 23.0 57 6.6 ESE 22 32 12 17 1012.2 1012.1 0.0
22/12:00pm 32.5 34.3 23.2 58 6.4 ESE 19 26 10 14 1012.5 1012.4 0.0
22/11:30am 31.8 32.9 21.9 55 6.7 ESE 19 26 10 14 1012.8 1012.7 0.0
22/11:00am 31.3 32.6 22.6 60 5.9 SE 20 26 11 14 1013.2 1013.1 0.0
22/10:30am 30.9 32.3 22.8 62 5.5 SE 20 30 11 16 1013.6 1013.5 0.0
22/10:00am 30.3 31.4 23.0 65 5.0 SE 22 28 12 15 1013.6 1013.5 0.0
22/09:30am 29.5 30.4 22.7 67 4.6 SE 22 26 12 14 1013.8 1013.7 0.0
22/09:00am 29.2 30.5 22.4 66 4.6 SE 19 24 10 13 1013.7 1013.6 0.4
22/08:30am 28.7 30.9 24.0 76 3.3 SE 19 24 10 13 1013.5 1013.4 0.4
22/08:00am 27.7 30.8 22.9 75 3.3 SE 11 15 6 8 1013.6 1013.5 0.4
22/07:30am 26.4 31.0 23.1 82 2.2 S 4 7 2 4 1013.5 1013.4 0.4
22/07:00am 24.9 29.3 22.8 88 1.4 SW 4 6 2 3 1013.2 1013.1 0.4
22/06:30am 24.2 29.0 22.8 92 0.9 SW 2 4 1 2 1013.2 1013.1 0.4
22/06:00am 23.8 28.5 22.6 93 0.8 SW 2 2 1 1 1012.9 1012.8 0.4
22/05:30am 23.7 28.0 22.7 94 0.7 SW 4 6 2 3 1012.7 1012.6 0.4
22/05:00am 23.6 27.4 22.4 93 0.8 SW 6 7 3 4 1012.6 1012.5 0.4
22/04:30am 23.6 26.8 22.4 93 0.8 SW 9 11 5 6 1012.5 1012.4 0.4
22/04:00am 23.7 27.4 22.5 93 0.8 SW 7 9 4 5 1012.4 1012.3 0.4
22/03:30am 23.8 27.1 22.6 93 0.8 SW 9 11 5 6 1012.3 1012.2 0.4
22/03:00am 24.1 27.6 22.9 93 0.8 SW 9 11 5 6 1012.4 1012.3 0.4
22/02:30am 24.4 28.0 23.0 92 0.9 SW 9 11 5 6 1012.7 1012.6 0.4
22/02:00am 24.9 29.2 23.3 91 1.1 SSW 6 7 3 4 1012.9 1012.8 0.4
22/01:30am 25.0 28.7 23.2 90 1.2 SSW 9 9 5 5 1013.2 1013.1 0.2
22/01:00am 25.2 29.2 23.1 88 1.4 SW 7 9 4 5 1013.5 1013.4 0.2
22/12:30am 25.3 29.1 22.8 86 1.7 SW 7 9 4 5 1013.7 1013.6 0.0
22/12:00am 25.6 29.3 22.3 82 2.2 SSE 6 7 3 4 1013.8 1013.7 0.0
 
Date/Time
EST
Temp
°C
App
Temp
°C
Dew
Point
°C
Rel
Hum
%
Delta-T
°C
Wind Press
QNH
hPa
Press
MSL
hPa
Rain since
9am
mm
Dir  Spd
km/h
Gust
km/h
Spd
kts
Gust
kts
21/11:30pm 27.3 31.4 22.9 77 3.0 NE 6 7 3 4 1013.8 1013.7 0.0
21/11:00pm 27.5 31.6 22.9 76 3.1 NE 6 7 3 4 1014.0 1013.9 0.0
21/10:30pm 27.7 31.0 22.6 74 3.5 ENE 9 15 5 8 1013.8 1013.7 0.0
21/10:00pm 27.9 30.9 22.6 73 3.6 ENE 11 17 6 9 1013.7 1013.6 0.0
21/09:30pm 27.9 30.4 22.4 72 3.7 ENE 13 19 7 10 1013.4 1013.3 0.0
21/09:00pm 28.1 29.5 21.9 69 4.2 ENE 17 20 9 11 1013.2 1013.1 0.0
21/08:30pm 28.1 30.7 22.6 72 3.7 ENE 13 19 7 10 1013.0 1012.9 0.0
21/08:00pm 28.2 30.6 22.9 73 3.6 ENE 15 20 8 11 1012.7 1012.6 0.0
21/07:30pm 28.3 29.5 22.1 69 4.2 ENE 19 24 10 13 1012.2 1012.1 0.0
21/07:00pm 28.4 29.7 22.6 71 3.9 ENE 20 28 11 15 1011.8 1011.7 0.0
21/06:30pm 28.6 30.2 22.1 68 4.4 ENE 17 24 9 13 1011.7 1011.6 0.0
21/06:00pm 29.0 30.8 22.5 68 4.4 NE 17 26 9 14 1011.5 1011.4 0.0
21/05:30pm 29.2 31.7 23.2 70 4.1 NE 15 20 8 11 1011.1 1011.0 0.0
21/05:00pm 29.5 31.3 22.5 66 4.8 ENE 17 24 9 13 1010.9 1010.8 0.0
21/04:30pm 29.5 30.9 22.5 66 4.8 NE 19 24 10 13 1010.9 1010.8 0.0
21/04:00pm 30.0 31.8 23.2 67 4.7 ENE 19 26 10 14 1011.1 1011.0 0.0
21/03:30pm 30.1 31.6 23.0 65 4.9 ENE 20 30 11 16 1011.0 1010.9 0.0
21/03:00pm 30.9 32.5 23.3 64 5.2 NE 20 30 11 16 1011.2 1011.1 0.0
21/02:30pm 30.8 32.0 23.2 64 5.2 ENE 22 33 12 18 1011.0 1010.9 0.0
21/02:00pm 31.7 33.7 24.0 63 5.4 NE 20 26 11 14 1011.4 1011.3 0.0
21/01:30pm 30.5 32.3 23.2 65 5.0 ENE 19 26 10 14 1011.8 1011.7 0.0
21/01:00pm 31.8 33.9 23.1 60 6.0 ENE 17 22 9 12 1012.0 1011.9 0.0
21/12:30pm 31.8 34.2 23.6 62 5.7 NE 17 22 9 12 1012.3 1012.2 0.0
21/12:00pm 32.1 35.3 24.4 63 5.4 ENE 15 20 8 11 1012.5 1012.4 0.0
21/11:30am 30.7 33.5 23.6 66 4.9 ESE 15 20 8 11 1013.0 1012.9 0.0
21/11:00am 30.9 34.1 24.3 68 4.6 ESE 15 20 8 11 1013.1 1013.0 0.0
21/10:30am 30.1 32.8 23.5 67 4.6 ESE 15 19 8 10 1013.1 1013.0 0.0
21/10:00am 30.0 33.0 23.4 67 4.5 ESE 13 19 7 10 1013.3 1013.2 0.0
21/09:30am 29.7 32.4 23.4 69 4.3 SE 15 19 8 10 1013.3 1013.2 0.0
21/09:00am 29.4 31.7 23.4 70 4.1 SE 17 20 9 11 1013.2 1013.1 3.0
21/08:30am 28.8 31.0 23.9 75 3.4 SE 19 22 10 12 1012.8 1012.7 3.0
21/08:00am 28.1 30.2 23.7 77 3.0 SE 19 22 10 12 1012.7 1012.6 3.0
21/07:30am 27.0 31.5 23.7 82 2.3 SSE 6 11 3 6 1012.4 1012.3 3.0
21/07:00am 24.9 29.8 23.7 93 0.8 WSW 4 7 2 4 1012.2 1012.1 3.0
21/06:30am 24.1 28.3 23.2 95 0.6 WSW 6 9 3 5 1011.9 1011.8 3.0
21/06:00am 24.1 28.5 23.4 96 0.5 SSE 6 7 3 4 1011.5 1011.4 3.0
21/05:30am 23.8 27.9 23.0 95 0.5 WSW 6 6 3 3 1011.4 1011.3 3.0
21/05:00am 24.1 28.2 23.2 95 0.6 WSW 7 9 4 5 1011.3 1011.2 3.0
21/04:30am 24.3 28.7 23.4 95 0.6 WSW 6 6 3 3 1011.1 1011.0 3.0
21/04:00am 24.2 28.5 23.3 95 0.6 WSW 6 7 3 4 1010.9 1010.8 3.0
21/03:30am 24.3 28.6 23.3 94 0.7 WSW 6 7 3 4 1010.6 1010.5 3.0
21/03:00am 24.7 29.3 23.8 95 0.6 S 6 7 3 4 1010.4 1010.3 3.0
21/02:30am 24.1 28.3 23.2 95 0.6 SSW 6 9 3 5 1010.4 1010.3 3.0
21/02:00am 24.0 28.1 23.0 94 0.7 SW 6 6 3 3 1010.5 1010.4 3.0
21/01:30am 24.3 29.0 23.3 94 0.7 SW 4 6 2 3 1010.8 1010.7 3.0
21/01:00am 24.5 29.3 23.5 94 0.7 SW 4 6 2 3 1010.8 1010.7 3.0
21/12:30am 24.6 29.5 23.6 94 0.7 SSW 4 6 2 3 1011.0 1010.9 3.0
21/12:00am 24.6 29.0 23.4 93 0.8 SW 6 6 3 3 1011.2 1011.1 3.0

Other Formats:

Comma delimited format used in spreadsheet applications
http://www.bom.gov.au/fwo/IDQ60801/IDQ60801.94383.axf

JavaScript Object Notation format (JSON) in row-major order
http://www.bom.gov.au/fwo/IDQ60801/IDQ60801.94383.json